createdAt,value
2024-02-26T00:00:00.585Z,97658.56
2024-02-26T00:02:45.293Z,97660.21
2024-02-26T00:05:26.593Z,97659.00
2024-02-26T00:08:08.369Z,97658.15
2024-02-26T00:10:49.422Z,97660.37
2024-02-26T00:13:30.273Z,97656.02
2024-02-26T00:16:21.448Z,97660.05
2024-02-26T00:19:09.515Z,97659.00
2024-02-26T00:21:50.400Z,97656.80
2024-02-26T00:24:31.282Z,97657.24
2024-02-26T00:27:12.772Z,97657.55
2024-02-26T00:29:54.449Z,97656.54
2024-02-26T00:32:42.899Z,97660.67
2024-02-26T00:35:38.386Z,97661.16
2024-02-26T00:38:27.313Z,97664.63
2024-02-26T00:41:02.486Z,97663.73
2024-02-26T00:43:50.309Z,97656.23
2024-02-26T00:46:26.171Z,97647.27
2024-02-26T00:49:14.414Z,97641.45
2024-02-26T00:51:49.532Z,97633.38
2024-02-26T00:54:37.280Z,97633.31
2024-02-26T00:57:12.977Z,97628.84
2024-02-26T01:00:03.320Z,97633.58
2024-02-26T01:02:40.032Z,97633.90
2024-02-26T01:05:28.332Z,97630.50
2024-02-26T01:08:04.248Z,97630.23
2024-02-26T01:10:52.309Z,97632.94
2024-02-26T01:13:34.333Z,97627.27
2024-02-26T01:16:29.279Z,97628.09
2024-02-26T01:19:17.386Z,97628.55
2024-02-26T01:21:58.416Z,97629.89
2024-02-26T01:24:39.258Z,97634.09
2024-02-26T01:27:27.352Z,97632.88
2024-02-26T01:30:01.826Z,97628.23
2024-02-26T01:32:50.399Z,97627.39
2024-02-26T01:35:32.255Z,97624.90
2024-02-26T01:38:20.268Z,97626.51
2024-02-26T01:41:01.259Z,97629.63
2024-02-26T01:43:42.407Z,97626.44
2024-02-26T01:46:24.251Z,97630.91
2024-02-26T01:49:05.521Z,97630.38
2024-02-26T01:51:48.280Z,97627.38
2024-02-26T01:54:29.394Z,97626.46
2024-02-26T01:57:11.306Z,97625.77
2024-02-26T01:59:59.310Z,97625.11
2024-02-26T02:02:34.042Z,97628.20
2024-02-26T02:05:26.262Z,97627.81
2024-02-26T02:08:00.807Z,97627.27
2024-02-26T02:10:49.325Z,97627.17
2024-02-26T02:13:23.695Z,97632.67
2024-02-26T02:16:11.409Z,97635.42
2024-02-26T02:18:45.718Z,97640.13
2024-02-26T02:21:33.261Z,97639.49
2024-02-26T02:24:14.351Z,97638.39
2024-02-26T02:27:02.342Z,97639.59
2024-02-26T02:29:36.843Z,97640.73
2024-02-26T02:32:25.288Z,97646.44
2024-02-26T02:34:59.935Z,97645.48
2024-02-26T02:37:48.268Z,97648.01
2024-02-26T02:40:22.821Z,97648.61
2024-02-26T02:43:12.254Z,97650.04
2024-02-26T02:45:53.252Z,97648.13
2024-02-26T02:48:34.647Z,97651.48
2024-02-26T02:51:17.409Z,97650.11
2024-02-26T02:54:05.270Z,97645.65
2024-02-26T02:56:39.862Z,97644.76
2024-02-26T02:59:28.373Z,97642.52
2024-02-26T03:02:03.815Z,97645.40
2024-02-26T03:04:45.364Z,97646.09
2024-02-26T03:07:27.512Z,97650.11
2024-02-26T03:10:09.259Z,97648.40
2024-02-26T03:12:50.399Z,97647.65
2024-02-26T03:15:31.341Z,97646.20
2024-02-26T03:18:12.656Z,97652.52
2024-02-26T03:20:54.340Z,97654.25
2024-02-26T03:23:44.320Z,97653.10
2024-02-26T03:26:39.407Z,97652.30
2024-02-26T03:29:34.305Z,97653.95
2024-02-26T03:32:22.390Z,97653.30
2024-02-26T03:34:57.495Z,97649.61
2024-02-26T03:37:45.258Z,97651.45
2024-02-26T03:40:20.918Z,97648.95
2024-02-26T03:43:10.391Z,97639.65
2024-02-26T03:45:45.469Z,97638.00
2024-02-26T03:48:34.405Z,97634.02
2024-02-26T03:51:16.336Z,97635.59
2024-02-26T03:54:11.389Z,97633.45
2024-02-26T03:56:59.400Z,97634.17
2024-02-26T03:59:41.072Z,97633.73
2024-02-26T04:02:22.337Z,97632.14
2024-02-26T04:05:10.519Z,97632.04
2024-02-26T04:07:52.259Z,97635.77
2024-02-26T04:10:33.454Z,97640.55
2024-02-26T04:13:15.262Z,97643.33
2024-02-26T04:16:03.255Z,97640.72
2024-02-26T04:18:38.688Z,97638.51
2024-02-26T04:21:20.313Z,97634.83
2024-02-26T04:24:09.319Z,97626.90
2024-02-26T04:26:57.271Z,97620.02
2024-02-26T04:29:32.364Z,97614.33
2024-02-26T04:32:20.263Z,97605.23
2024-02-26T04:34:55.527Z,97601.87
2024-02-26T04:37:43.241Z,97599.48
2024-02-26T04:40:18.400Z,97598.11
2024-02-26T04:43:06.231Z,97599.83
2024-02-26T04:45:41.567Z,97599.38
2024-02-26T04:48:29.431Z,97603.25
2024-02-26T04:51:04.651Z,97599.70
2024-02-26T04:53:52.243Z,97607.35
2024-02-26T04:56:36.227Z,97608.70
2024-02-26T04:59:31.249Z,97610.10
2024-02-26T05:02:20.320Z,97615.14
2024-02-26T05:05:02.405Z,97621.25
2024-02-26T05:07:57.250Z,97618.48
2024-02-26T05:10:48.272Z,97615.15
2024-02-26T05:13:36.344Z,97613.23
2024-02-26T05:16:17.279Z,97615.67
2024-02-26T05:19:05.434Z,97619.27
2024-02-26T05:21:48.237Z,97618.34
2024-02-26T05:24:43.243Z,97618.79
2024-02-26T05:27:32.273Z,97625.02
2024-02-26T05:30:07.434Z,97624.33
2024-02-26T05:32:55.285Z,97623.39
2024-02-26T05:35:37.217Z,97621.45
2024-02-26T05:38:32.229Z,97619.86
2024-02-26T05:41:20.246Z,97620.89
2024-02-26T05:44:01.527Z,97618.65
2024-02-26T05:46:43.254Z,97624.59
2024-02-26T05:49:24.634Z,97625.63
2024-02-26T05:52:14.366Z,97626.79
2024-02-26T05:54:56.259Z,97632.60
2024-02-26T05:57:51.236Z,97635.17
2024-02-26T06:00:39.369Z,97632.73
2024-02-26T06:03:14.438Z,97639.01
2024-02-26T06:06:02.365Z,97644.86
2024-02-26T06:08:37.373Z,97648.42
2024-02-26T06:11:26.234Z,97649.65
2024-02-26T06:14:03.942Z,97652.81
2024-02-26T06:16:45.238Z,97654.87
2024-02-26T06:19:19.794Z,97655.05
2024-02-26T06:22:08.222Z,97655.64
2024-02-26T06:24:56.354Z,97658.66
2024-02-26T06:27:44.299Z,97667.31
2024-02-26T06:30:19.542Z,97671.04
2024-02-26T06:33:07.338Z,97679.66
2024-02-26T06:35:48.438Z,97681.98
2024-02-26T06:38:30.226Z,97678.59
2024-02-26T06:41:12.741Z,97678.17
2024-02-26T06:43:54.248Z,97674.32
2024-02-26T06:46:42.205Z,97676.65
2024-02-26T06:49:23.289Z,97679.80
2024-02-26T06:52:14.216Z,97668.20
2024-02-26T06:54:50.106Z,97670.31
2024-02-26T06:57:38.370Z,97675.77
2024-02-26T07:00:17.997Z,97671.02
2024-02-26T07:03:06.278Z,97669.73
2024-02-26T07:05:47.416Z,97670.39
2024-02-26T07:08:35.227Z,97669.52
2024-02-26T07:11:17.277Z,97671.61
2024-02-26T07:14:05.213Z,97670.14
2024-02-26T07:16:39.733Z,97675.02
2024-02-26T07:19:27.303Z,97676.30
2024-02-26T07:22:11.356Z,97676.83
2024-02-26T07:25:06.214Z,97680.52
2024-02-26T07:27:54.220Z,97681.95
2024-02-26T07:30:35.447Z,97685.01
2024-02-26T07:33:17.424Z,97690.27
2024-02-26T07:35:58.385Z,97685.55
2024-02-26T07:38:43.272Z,97685.38
2024-02-26T07:41:25.570Z,97684.94
2024-02-26T07:44:07.243Z,97682.59
2024-02-26T07:46:55.206Z,97682.08
2024-02-26T07:49:29.897Z,97681.16
2024-02-26T07:52:19.234Z,97675.85
2024-02-26T07:54:53.773Z,97677.73
2024-02-26T07:57:41.215Z,97684.55
2024-02-26T08:00:18.429Z,97680.30
2024-02-26T08:03:06.268Z,97680.70
2024-02-26T08:05:48.348Z,97680.83
2024-02-26T08:08:29.402Z,97679.04
2024-02-26T08:11:10.312Z,97680.35
2024-02-26T08:13:51.373Z,97679.66
2024-02-26T08:16:34.168Z,97680.11
2024-02-26T08:19:17.292Z,97674.67
2024-02-26T08:21:58.705Z,97675.90
2024-02-26T08:24:54.224Z,97675.68
2024-02-26T08:27:42.262Z,97678.08
2024-02-26T08:30:18.437Z,97676.52
2024-02-26T08:33:06.362Z,97675.51
2024-02-26T08:35:48.254Z,97676.67
2024-02-26T08:38:36.215Z,97675.89
2024-02-26T08:41:17.437Z,97674.15
2024-02-26T08:43:59.251Z,97670.91
2024-02-26T08:46:47.236Z,97670.75
2024-02-26T08:49:27.116Z,97669.23
2024-02-26T08:52:15.234Z,97669.27
2024-02-26T08:54:50.219Z,97673.66
2024-02-26T08:57:40.281Z,97673.08
2024-02-26T09:00:16.892Z,97670.70
2024-02-26T09:03:05.964Z,97665.95
2024-02-26T09:05:48.354Z,97666.01
2024-02-26T09:08:29.416Z,97662.66
2024-02-26T09:11:11.200Z,97663.42
2024-02-26T09:13:52.689Z,97669.13
2024-02-26T09:16:34.221Z,97663.69
2024-02-26T09:19:15.445Z,97660.52
2024-02-26T09:21:57.216Z,97666.55
2024-02-26T09:24:45.226Z,97671.33
2024-02-26T09:27:43.228Z,97672.09
2024-02-26T09:30:38.232Z,97665.33
2024-02-26T09:33:26.334Z,97664.36
2024-02-26T09:36:14.419Z,97660.34
2024-02-26T09:38:56.628Z,97658.96
2024-02-26T09:41:49.230Z,97656.48
2024-02-26T09:44:24.174Z,97653.20
2024-02-26T09:47:13.214Z,97655.11
2024-02-26T09:49:49.383Z,97655.34
2024-02-26T09:52:38.236Z,97662.87
2024-02-26T09:55:12.778Z,97663.61
2024-02-26T09:58:02.358Z,97669.27
2024-02-26T10:00:47.441Z,97674.20
2024-02-26T10:03:37.271Z,97678.23
2024-02-26T10:06:12.955Z,97675.27
2024-02-26T10:09:02.428Z,97673.04
2024-02-26T10:11:38.641Z,97674.69
2024-02-26T10:14:26.335Z,97672.73
2024-02-26T10:17:09.233Z,97669.98
2024-02-26T10:19:59.241Z,97666.65
2024-02-26T10:22:33.646Z,97664.19
2024-02-26T10:25:21.202Z,97663.04
2024-02-26T10:28:16.218Z,97662.10
2024-02-26T10:31:04.226Z,97653.68
2024-02-26T10:33:43.462Z,97649.23
2024-02-26T10:36:43.828Z,97648.69
2024-02-26T10:39:23.564Z,97648.68
2024-02-26T10:42:17.835Z,97647.46
2024-02-26T10:45:00.251Z,97649.89
2024-02-26T10:47:55.504Z,97655.81
2024-02-26T10:50:50.271Z,97647.83
2024-02-26T10:53:48.294Z,97645.08
2024-02-26T10:56:37.224Z,97643.14
2024-02-26T10:59:19.268Z,97640.53
2024-02-26T11:02:14.235Z,97643.27
2024-02-26T11:05:02.310Z,97641.00
2024-02-26T11:07:38.505Z,97640.80
2024-02-26T11:10:26.256Z,97638.94
2024-02-26T11:13:09.188Z,97639.06
2024-02-26T11:16:08.315Z,97633.36
2024-02-26T11:18:57.516Z,97629.27
2024-02-26T11:21:41.804Z,97631.17
2024-02-26T11:24:30.311Z,97632.96
2024-02-26T11:27:26.359Z,97630.79
2024-02-26T11:30:18.230Z,97621.70
2024-02-26T11:32:56.913Z,97619.73
2024-02-26T11:35:45.322Z,97619.27
2024-02-26T11:38:30.346Z,97616.90
2024-02-26T11:41:18.190Z,97611.55
2024-02-26T11:44:15.201Z,97614.23
2024-02-26T11:47:11.326Z,97613.80
2024-02-26T11:49:59.254Z,97606.42
2024-02-26T11:52:34.346Z,97611.85
2024-02-26T11:55:40.224Z,97610.40
2024-02-26T11:58:22.310Z,97611.20
2024-02-26T12:01:18.884Z,97613.40
2024-02-26T12:07:16.242Z,97608.88
2024-02-26T12:10:43.280Z,97604.60
2024-02-26T12:13:29.727Z,97605.56
2024-02-26T12:16:24.680Z,97607.39
2024-02-26T12:19:14.388Z,97609.23
2024-02-26T12:21:56.250Z,97608.75
2024-02-26T12:24:51.205Z,97609.73
2024-02-26T12:27:39.215Z,97606.76
2024-02-26T12:30:14.375Z,97608.88
2024-02-26T12:33:05.467Z,97600.73
2024-02-26T12:35:40.745Z,97602.75
2024-02-26T12:38:28.197Z,97602.63
2024-02-26T12:41:04.265Z,97605.65
2024-02-26T12:43:52.244Z,97609.04
2024-02-26T12:46:27.342Z,97609.41
2024-02-26T12:49:15.400Z,97604.48
2024-02-26T12:51:50.416Z,97603.58
2024-02-26T12:54:42.388Z,97606.39
2024-02-26T12:57:30.323Z,97609.48
2024-02-26T13:00:33.257Z,97601.38
2024-02-26T13:03:22.268Z,97596.38
2024-02-26T13:05:57.461Z,97599.19
2024-02-26T13:08:45.205Z,97602.30
2024-02-26T13:11:21.838Z,97601.61
2024-02-26T13:14:10.225Z,97604.25
2024-02-26T13:16:52.378Z,97603.85
2024-02-26T13:19:47.361Z,97599.61
2024-02-26T13:22:38.225Z,97603.77
2024-02-26T13:25:20.796Z,97608.09
2024-02-26T13:28:17.366Z,97605.38
2024-02-26T13:30:59.513Z,97605.79
2024-02-26T13:33:47.315Z,97604.45
2024-02-26T13:36:29.247Z,97607.25
2024-02-26T13:39:24.280Z,97613.12
2024-02-26T13:42:12.211Z,97614.20
2024-02-26T13:44:47.464Z,97616.91
2024-02-26T13:47:35.339Z,97614.91
2024-02-26T13:50:10.392Z,97617.52
2024-02-26T13:53:01.243Z,97613.39
2024-02-26T13:55:36.603Z,97612.50
2024-02-26T13:58:25.231Z,97614.02
2024-02-26T14:01:07.255Z,97619.73
2024-02-26T14:04:05.521Z,97622.39
2024-02-26T14:06:53.363Z,97626.94
2024-02-26T14:09:33.072Z,97625.61
2024-02-26T14:12:28.332Z,97624.66
2024-02-26T14:15:06.457Z,97628.56
2024-02-26T14:18:01.484Z,97631.30
2024-02-26T14:20:36.472Z,97629.15
2024-02-26T14:23:24.205Z,97629.80
2024-02-26T14:25:59.433Z,97626.43
2024-02-26T14:28:47.347Z,97629.53
2024-02-26T14:31:33.238Z,97627.45
2024-02-26T14:34:21.360Z,97627.67
2024-02-26T14:37:03.218Z,97631.77
2024-02-26T14:39:59.299Z,97629.90
2024-02-26T14:42:48.370Z,97625.66
2024-02-26T14:45:23.514Z,97621.65
2024-02-26T14:48:11.264Z,97616.39
2024-02-26T14:50:46.708Z,97613.44
2024-02-26T14:53:35.360Z,97614.15
2024-02-26T14:56:10.817Z,97617.83
2024-02-26T14:58:59.228Z,97624.29
2024-02-26T15:01:34.454Z,97629.67
2024-02-26T15:04:22.298Z,97625.64
2024-02-26T15:06:57.419Z,97629.52
2024-02-26T15:09:46.220Z,97633.64
2024-02-26T15:12:24.621Z,97632.05
2024-02-26T15:15:08.647Z,97636.79
2024-02-26T15:17:51.340Z,97643.05
2024-02-26T15:20:34.233Z,97647.46
2024-02-26T15:23:30.248Z,97648.71
2024-02-26T15:26:25.232Z,97647.81
2024-02-26T15:29:13.203Z,97649.39
2024-02-26T15:31:55.295Z,97652.28
2024-02-26T15:34:50.515Z,97652.20
2024-02-26T15:37:38.240Z,97659.17
2024-02-26T15:40:20.218Z,97658.09
2024-02-26T15:43:10.993Z,97664.59
2024-02-26T15:45:47.672Z,97664.11
2024-02-26T15:48:35.977Z,97667.75
2024-02-26T15:51:11.406Z,97666.17
2024-02-26T15:54:02.019Z,97669.59
2024-02-26T15:56:45.671Z,97668.64
2024-02-26T15:59:40.203Z,97667.27
2024-02-26T16:02:29.729Z,97670.22
2024-02-26T16:05:12.209Z,97674.36
2024-02-26T16:08:10.210Z,97686.96
2024-02-26T16:10:58.235Z,97691.17
2024-02-26T16:13:33.366Z,97694.55
2024-02-26T16:16:27.290Z,97691.89
2024-02-26T16:19:06.539Z,97692.36
2024-02-26T16:21:55.728Z,97694.74
2024-02-26T16:24:36.458Z,97697.30
2024-02-26T16:27:18.223Z,97704.55
2024-02-26T16:30:06.336Z,97708.02
2024-02-26T16:32:43.337Z,97712.41
2024-02-26T16:35:31.392Z,97714.77
2024-02-26T16:38:05.713Z,97716.23
2024-02-26T16:40:55.235Z,97715.33
2024-02-26T16:43:29.733Z,97713.45
2024-02-26T16:46:17.341Z,97714.86
2024-02-26T16:48:54.282Z,97711.91
2024-02-26T16:51:43.251Z,97715.11
2024-02-26T16:54:19.000Z,97719.27
2024-02-26T16:57:07.241Z,97720.25
2024-02-26T16:59:49.248Z,97721.14
2024-02-26T17:02:30.356Z,97725.02
2024-02-26T17:05:11.297Z,97728.48
2024-02-26T17:07:52.347Z,97720.84
2024-02-26T17:10:40.585Z,97724.84
2024-02-26T17:13:15.425Z,97726.83
2024-02-26T17:16:03.355Z,97727.54
2024-02-26T17:18:38.748Z,97726.84
2024-02-26T17:21:32.243Z,97728.13
2024-02-26T17:24:14.276Z,97732.33
2024-02-26T17:27:09.268Z,97734.36
2024-02-26T17:29:57.242Z,97731.49
2024-02-26T17:32:33.578Z,97732.32
2024-02-26T17:35:23.226Z,97738.23
2024-02-26T17:38:03.146Z,97738.23
2024-02-26T17:40:51.283Z,97739.70
2024-02-26T17:43:26.355Z,97742.57
2024-02-26T17:46:15.246Z,97745.88
2024-02-26T17:48:50.527Z,97749.77
2024-02-26T17:51:38.219Z,97754.29
2024-02-26T17:54:13.486Z,97760.70
2024-02-26T17:57:03.536Z,97760.89
2024-02-26T17:59:45.368Z,97760.76
2024-02-26T18:02:27.202Z,97761.15
2024-02-26T18:05:15.324Z,97760.55
2024-02-26T18:07:49.720Z,97766.08
2024-02-26T18:10:38.276Z,97768.59
2024-02-26T18:13:19.204Z,97773.73
2024-02-26T18:16:07.233Z,97772.67
2024-02-26T18:18:41.908Z,97767.79
2024-02-26T18:21:32.300Z,97772.67
2024-02-26T18:24:13.242Z,97776.11
2024-02-26T18:27:08.264Z,97776.65
2024-02-26T18:29:56.303Z,97777.83
2024-02-26T18:32:38.254Z,97776.11
2024-02-26T18:35:33.265Z,97778.41
2024-02-26T18:38:22.298Z,97778.75
2024-02-26T18:41:04.232Z,97777.32
2024-02-26T18:43:59.205Z,97781.10
2024-02-26T18:46:53.212Z,97784.97
2024-02-26T18:49:37.703Z,97792.65
2024-02-26T18:52:26.208Z,97795.73
2024-02-26T18:55:01.471Z,97798.52
2024-02-26T18:57:49.275Z,97799.48
2024-02-26T19:00:24.588Z,97798.52
2024-02-26T19:03:16.644Z,97804.33
2024-02-26T19:05:58.431Z,97803.83
2024-02-26T19:08:40.221Z,97806.77
2024-02-26T19:11:29.301Z,97809.66
2024-02-26T19:14:05.063Z,97812.91
2024-02-26T19:16:56.198Z,97821.81
2024-02-26T19:19:32.434Z,97822.23
2024-02-26T19:22:20.235Z,97826.06
2024-02-26T19:24:54.757Z,97832.59
2024-02-26T19:27:44.275Z,97834.30
2024-02-26T19:30:19.175Z,97838.27
2024-02-26T19:33:11.879Z,97845.35
2024-02-26T19:35:49.703Z,97844.75
2024-02-26T19:38:39.689Z,97846.24
2024-02-26T19:41:24.308Z,97849.54
2024-02-26T19:44:12.403Z,97853.34
2024-02-26T19:46:59.051Z,97852.88
2024-02-26T19:49:42.266Z,97856.29
2024-02-26T19:52:28.320Z,97858.83
2024-02-26T19:55:13.718Z,97862.58
2024-02-26T19:58:02.572Z,97868.00
2024-02-26T20:00:45.391Z,97871.20
2024-02-26T20:03:37.260Z,97874.23
2024-02-26T20:06:20.976Z,97879.38
2024-02-26T20:09:11.100Z,97873.00
2024-02-26T20:11:50.428Z,97872.38
2024-02-26T20:14:38.370Z,97877.33
2024-02-26T20:17:23.208Z,97880.32
2024-02-26T20:20:14.644Z,97886.75
2024-02-26T20:22:49.405Z,97888.84
2024-02-26T20:25:31.362Z,97893.23
2024-02-26T20:28:21.147Z,97894.02
2024-02-26T20:31:17.208Z,97892.92
2024-02-26T20:34:06.374Z,97900.05
2024-02-26T20:36:48.469Z,97900.02
2024-02-26T20:39:44.736Z,97897.70
2024-02-26T20:42:34.281Z,97895.13
2024-02-26T20:45:18.283Z,97897.00
2024-02-26T20:48:06.304Z,97903.61
2024-02-26T20:50:55.572Z,97908.52
2024-02-26T20:53:31.096Z,97909.34
2024-02-26T20:56:21.182Z,97912.90
2024-02-26T20:59:03.198Z,97916.46
2024-02-26T21:01:45.411Z,97918.48
2024-02-26T21:04:27.335Z,97921.52
2024-02-26T21:07:16.178Z,97922.71
2024-02-26T21:09:53.283Z,97925.46
2024-02-26T21:12:42.261Z,97934.31
2024-02-26T21:15:24.261Z,97936.20
2024-02-26T21:18:06.022Z,97935.55
2024-02-26T21:20:47.168Z,97939.48
2024-02-26T21:23:28.383Z,97941.07
2024-02-26T21:26:10.210Z,97938.98
2024-02-26T21:28:51.663Z,97942.70
2024-02-26T21:31:35.212Z,97945.69
2024-02-26T21:34:18.565Z,97943.45
2024-02-26T21:37:00.200Z,97944.49
2024-02-26T21:39:43.919Z,97944.43
2024-02-26T21:42:25.206Z,97945.99
2024-02-26T21:45:06.475Z,97951.16
2024-02-26T21:47:48.297Z,97959.29
2024-02-26T21:50:31.601Z,97958.68
2024-02-26T21:53:13.368Z,97964.77
2024-02-26T21:56:01.220Z,97965.34
2024-02-26T21:58:35.792Z,97965.48
2024-02-26T22:01:24.310Z,97964.29
2024-02-26T22:03:58.771Z,97971.73
2024-02-26T22:06:48.708Z,97970.73
2024-02-26T22:09:25.110Z,97967.48
2024-02-26T22:12:15.054Z,97969.17
2024-02-26T22:14:58.182Z,97973.13
2024-02-26T22:17:41.942Z,97971.48
2024-02-26T22:20:24.532Z,97974.71
2024-02-26T22:23:07.511Z,97976.75
2024-02-26T22:25:51.323Z,97977.63
2024-02-26T22:28:47.326Z,97980.38
2024-02-26T22:31:47.131Z,97981.14
2024-02-26T22:34:38.735Z,97978.14
2024-02-26T22:37:23.277Z,97977.91
2024-02-26T22:40:14.258Z,97983.61
2024-02-26T22:42:56.284Z,97980.98
2024-02-26T22:45:53.328Z,97983.84
2024-02-26T22:48:51.010Z,97988.82
2024-02-26T22:51:41.533Z,97987.98
2024-02-26T22:54:17.661Z,97985.46
2024-02-26T22:57:06.192Z,97989.73
2024-02-26T22:59:48.178Z,97991.30
2024-02-26T23:02:36.215Z,97989.48
2024-02-26T23:05:21.514Z,97988.35
2024-02-26T23:08:18.719Z,97988.88
2024-02-26T23:11:09.473Z,97996.45
2024-02-26T23:13:45.430Z,97995.73
2024-02-26T23:16:35.182Z,97997.13
2024-02-26T23:19:10.775Z,98003.64
2024-02-26T23:22:00.249Z,98003.39
2024-02-26T23:24:42.268Z,98005.27
2024-02-26T23:27:37.218Z,98006.41
2024-02-26T23:30:32.181Z,98008.15
2024-02-26T23:33:20.319Z,98005.99
2024-02-26T23:35:55.337Z,98011.58
2024-02-26T23:38:43.334Z,98014.48
2024-02-26T23:41:18.302Z,98012.84
2024-02-26T23:44:06.176Z,98009.95
2024-02-26T23:46:41.384Z,98009.42
2024-02-26T23:49:29.168Z,98010.02
2024-02-26T23:52:11.178Z,98016.27
2024-02-26T23:55:06.180Z,98017.68
2024-02-26T23:57:54.175Z,98020.48
